Terminal Aerodrome Forecast
Issued by NWS

Home | Current Version | Previous Version | Text Only | Print | Product List | Glossary On
Versions: 1 2 3 4 5 6 7 8 9 10 11 12 13 14 15 16 17 18 19 20 21 22
000
FTUS41 KBTV 311900 AAA
TAFSLK
TAF AMD
KSLK 311903Z 3119/0118 25008KT 2SM SHRA OVC020
     FM311930 23007KT P6SM VCSH BKN035
     FM312100 22007KT P6SM SCT040
     FM010700 21005KT 2SM BR SCT150
     FM010900 20005KT 3/4SM BR SCT001
     FM011200 21006KT P6SM SCT040=

USA.gov is the U.S. government's official web portal to all federal, state and local government web resources and services.